sensor_id;sensor_type;location;lat;lon;timestamp;pressure;altitude;pressure_sealevel;temperature;humidity
3832;BME280;12460;42.662;23.288;2023-04-09T00:10:36;94739.16;;;8.13;70.20
3832;BME280;12460;42.662;23.288;2023-04-09T00:25:40;94742.06;;;8.28;70.10
3832;BME280;12460;42.662;23.288;2023-04-09T00:40:48;94756.88;;;8.36;69.87
3832;BME280;12460;42.662;23.288;2023-04-09T00:55:54;94751.34;;;8.44;69.31
3832;BME280;12460;42.662;23.288;2023-04-09T01:11:31;94759.94;;;8.46;69.19
3832;BME280;12460;42.662;23.288;2023-04-09T01:27:07;94762.09;;;8.32;68.71
3832;BME280;12460;42.662;23.288;2023-04-09T01:42:26;94760.50;;;8.24;68.21
3832;BME280;12460;42.662;23.288;2023-04-09T01:57:31;94765.31;;;8.16;68.05
3832;BME280;12460;42.662;23.288;2023-04-09T02:12:38;94759.31;;;8.12;68.39
3832;BME280;12460;42.662;23.288;2023-04-09T02:27:43;94746.28;;;7.94;68.92
3832;BME280;12460;42.662;23.288;2023-04-09T02:42:48;94752.00;;;7.81;69.29
3832;BME280;12460;42.662;23.288;2023-04-09T02:57:53;94743.09;;;7.90;68.39
3832;BME280;12460;42.662;23.288;2023-04-09T03:12:57;94741.34;;;7.79;68.64
3832;BME280;12460;42.662;23.288;2023-04-09T03:28:02;94730.97;;;7.66;68.85
3832;BME280;12460;42.662;23.288;2023-04-09T03:43:14;94737.94;;;7.52;68.63
3832;BME280;12460;42.662;23.288;2023-04-09T03:58:24;94753.09;;;7.36;68.33
3832;BME280;12460;42.662;23.288;2023-04-09T04:13:28;94756.84;;;7.39;68.02
3832;BME280;12460;42.662;23.288;2023-04-09T04:28:39;94754.06;;;7.39;68.30
3832;BME280;12460;42.662;23.288;2023-04-09T04:43:48;94754.41;;;7.77;67.58
3832;BME280;12460;42.662;23.288;2023-04-09T04:58:59;94764.13;;;8.68;66.29
3832;BME280;12460;42.662;23.288;2023-04-09T05:14:10;94765.69;;;8.84;65.17
3832;BME280;12460;42.662;23.288;2023-04-09T05:29:16;94768.06;;;8.08;67.00
3832;BME280;12460;42.662;23.288;2023-04-09T05:44:20;94756.50;;;8.12;67.21
3832;BME280;12460;42.662;23.288;2023-04-09T05:59:28;94760.09;;;8.76;65.26
3832;BME280;12460;42.662;23.288;2023-04-09T06:14:32;94773.16;;;9.25;63.25
3832;BME280;12460;42.662;23.288;2023-04-09T06:29:37;94771.16;;;9.93;60.29
3832;BME280;12460;42.662;23.288;2023-04-09T06:44:42;94775.53;;;11.34;53.77
3832;BME280;12460;42.662;23.288;2023-04-09T06:59:47;94783.84;;;11.17;53.38
3832;BME280;12460;42.662;23.288;2023-04-09T07:14:51;94788.09;;;11.73;52.39
3832;BME280;12460;42.662;23.288;2023-04-09T07:29:57;94771.63;;;12.36;50.27
3832;BME280;12460;42.662;23.288;2023-04-09T07:45:02;94788.28;;;12.83;48.24
3832;BME280;12460;42.662;23.288;2023-04-09T08:00:07;94808.69;;;13.43;46.69
3832;BME280;12460;42.662;23.288;2023-04-09T08:15:18;94799.81;;;13.73;45.47
3832;BME280;12460;42.662;23.288;2023-04-09T08:30:23;94780.81;;;12.78;47.45
3832;BME280;12460;42.662;23.288;2023-04-09T08:45:29;94775.97;;;12.54;48.14
3832;BME280;12460;42.662;23.288;2023-04-09T09:00:34;94779.31;;;11.93;49.89
3832;BME280;12460;42.662;23.288;2023-04-09T09:15:39;94757.81;;;12.99;48.13
3832;BME280;12460;42.662;23.288;2023-04-09T09:30:45;94808.19;;;12.85;45.84
3832;BME280;12460;42.662;23.288;2023-04-09T09:45:51;94763.56;;;12.74;46.44
3832;BME280;12460;42.662;23.288;2023-04-09T10:00:56;94766.00;;;13.39;44.73
3832;BME280;12460;42.662;23.288;2023-04-09T10:16:01;94751.75;;;14.45;42.82
3832;BME280;12460;42.662;23.288;2023-04-09T10:31:07;94728.94;;;13.97;42.39
3832;BME280;12460;42.662;23.288;2023-04-09T10:46:33;94720.50;;;14.07;42.35
3832;BME280;12460;42.662;23.288;2023-04-09T11:01:53;94705.47;;;14.69;40.30
3832;BME280;12460;42.662;23.288;2023-04-09T11:16:57;94708.16;;;14.87;39.76
3832;BME280;12460;42.662;23.288;2023-04-09T11:32:03;94692.19;;;14.53;41.15
3832;BME280;12460;42.662;23.288;2023-04-09T11:47:12;94700.69;;;13.97;41.64
3832;BME280;12460;42.662;23.288;2023-04-09T12:02:18;94685.19;;;13.53;46.24
3832;BME280;12460;42.662;23.288;2023-04-09T12:17:23;94681.88;;;13.73;46.75
3832;BME280;12460;42.662;23.288;2023-04-09T12:32:28;94661.38;;;14.47;43.33
3832;BME280;12460;42.662;23.288;2023-04-09T12:47:34;94661.94;;;14.36;41.51
3832;BME280;12460;42.662;23.288;2023-04-09T13:02:38;94635.97;;;14.11;41.09
3832;BME280;12460;42.662;23.288;2023-04-09T13:17:43;94639.16;;;13.79;41.03
3832;BME280;12460;42.662;23.288;2023-04-09T13:32:47;94646.16;;;13.42;41.70
3832;BME280;12460;42.662;23.288;2023-04-09T13:47:53;94613.22;;;13.54;42.17
3832;BME280;12460;42.662;23.288;2023-04-09T14:02:58;94633.97;;;13.75;43.65
3832;BME280;12460;42.662;23.288;2023-04-09T14:18:02;94631.19;;;12.95;43.88
3832;BME280;12460;42.662;23.288;2023-04-09T14:33:07;94620.34;;;12.92;43.91
3832;BME280;12460;42.662;23.288;2023-04-09T14:48:11;94626.00;;;13.18;43.27
3832;BME280;12460;42.662;23.288;2023-04-09T15:03:16;94610.88;;;13.60;42.58
3832;BME280;12460;42.662;23.288;2023-04-09T15:18:21;94602.97;;;13.58;48.06
3832;BME280;12460;42.662;23.288;2023-04-09T15:33:25;94594.97;;;13.74;49.10
3832;BME280;12460;42.662;23.288;2023-04-09T15:48:31;94578.78;;;13.28;48.18
3832;BME280;12460;42.662;23.288;2023-04-09T16:03:36;94602.06;;;12.66;45.24
3832;BME280;12460;42.662;23.288;2023-04-09T16:18:44;94603.34;;;12.55;41.52
3832;BME280;12460;42.662;23.288;2023-04-09T16:33:49;94606.16;;;12.21;51.49
3832;BME280;12460;42.662;23.288;2023-04-09T16:48:53;94611.50;;;12.00;53.12
3832;BME280;12460;42.662;23.288;2023-04-09T17:03:59;94616.47;;;11.43;54.92
3832;BME280;12460;42.662;23.288;2023-04-09T17:19:06;94627.19;;;11.69;55.37
3832;BME280;12460;42.662;23.288;2023-04-09T17:34:11;94632.59;;;11.74;54.74
3832;BME280;12460;42.662;23.288;2023-04-09T17:49:17;94648.41;;;11.87;56.27
3832;BME280;12460;42.662;23.288;2023-04-09T18:04:24;94659.09;;;11.71;57.03
3832;BME280;12460;42.662;23.288;2023-04-09T18:19:28;94668.88;;;11.13;56.33
3832;BME280;12460;42.662;23.288;2023-04-09T18:34:33;94692.72;;;10.73;57.57
3832;BME280;12460;42.662;23.288;2023-04-09T18:49:38;94694.00;;;10.09;59.09
3832;BME280;12460;42.662;23.288;2023-04-09T19:04:42;94684.69;;;9.84;60.20
3832;BME280;12460;42.662;23.288;2023-04-09T19:19:48;94694.75;;;9.95;59.93
3832;BME280;12460;42.662;23.288;2023-04-09T19:34:52;94685.78;;;9.81;59.17
3832;BME280;12460;42.662;23.288;2023-04-09T19:49:57;94696.28;;;9.80;59.03
3832;BME280;12460;42.662;23.288;2023-04-09T20:05:02;94688.63;;;9.73;60.15
3832;BME280;12460;42.662;23.288;2023-04-09T20:20:07;94680.75;;;9.49;61.00
3832;BME280;12460;42.662;23.288;2023-04-09T20:35:12;94680.91;;;9.21;62.01
3832;BME280;12460;42.662;23.288;2023-04-09T20:50:17;94677.38;;;9.13;63.00
3832;BME280;12460;42.662;23.288;2023-04-09T21:05:22;94682.94;;;9.05;63.50
3832;BME280;12460;42.662;23.288;2023-04-09T21:20:26;94675.44;;;8.93;63.66
3832;BME280;12460;42.662;23.288;2023-04-09T21:35:30;94671.09;;;8.69;64.68
3832;BME280;12460;42.662;23.288;2023-04-09T21:50:35;94670.34;;;8.69;64.14
3832;BME280;12460;42.662;23.288;2023-04-09T22:05:39;94669.88;;;8.50;64.29
3832;BME280;12460;42.662;23.288;2023-04-09T22:20:44;94663.44;;;8.26;65.41
3832;BME280;12460;42.662;23.288;2023-04-09T22:35:49;94661.09;;;8.10;65.00
3832;BME280;12460;42.662;23.288;2023-04-09T22:50:54;94659.19;;;8.05;61.64
3832;BME280;12460;42.662;23.288;2023-04-09T23:05:59;94655.28;;;8.08;58.51
3832;BME280;12460;42.662;23.288;2023-04-09T23:21:08;94656.63;;;8.14;55.71
3832;BME280;12460;42.662;23.288;2023-04-09T23:36:13;94647.91;;;7.90;55.88
3832;BME280;12460;42.662;23.288;2023-04-09T23:51:18;94646.91;;;7.80;56.43
